LJMBLJLJ

Guest
Details From LJMB - Maribor
To LJLJ - Ljubljana
Flight Number -
Tags Generated
Created
Modified
Stats Distance 54 nm / 99 km
Max Altitude 0 ft / 0 m
Waypoints 2
Social Downloads 3
Likes 0
Share VATSIM

Download

Looking for another format? Having issues loading an existing format? Contact us
Advertisement - Login to hide

Notes

Generated

Route

LJMB LJLJ

ID Type Via Altitude Latitude Longitude Leg Dist Tot Dist Heading (true) Name
O LJMB APT - 0 ft / 0 m 46.48590˚ 15.68160˚ - 0 nm - -
O LJLJ APT - 0 ft / 0 m 46.23249˚ 14.44039˚ 53 nm 53 nm 254° / 253° -

Altitude Profile

Advertisement - Login to hide

LJMB

Details ICAO LJMB (MBX)
Name MARIBOR
Region Slovenia
Timezone Europe/Ljubljana (UTC+1.0)
Stats Elevation 876 ft / 267 m (AMSL)
Location 46.480625° 15.686020°
Runways 2
Magnetic Variation 3.937° E

METAR

LJMB 161300Z 18006KT 160V220 9999 FEW023 SCT070 BKN100 05/02 Q1008

Decode

TAF

TAF LJMB 160800Z 1609/1709 20005KT CAVOK BECMG 1616/1618 VRB02KT

Decode

Departure Runways

ID Width Length Bearing (true) Bearing (mag) Surface Threshold Offset Overrun Length
15 148 ft / 45 m 8,160 ft / 2,487 m 146.19° 142.25° Asphalt 0 ft / 0 m 0 ft / 0 m
15L 197 ft / 60 m 3,941 ft / 1,201 m 146.13° 142.19° Grass 0 ft / 0 m 0 ft / 0 m
33 148 ft / 45 m 8,160 ft / 2,487 m 326.20° 322.26° Asphalt 0 ft / 0 m 0 ft / 0 m
33R 197 ft / 60 m 3,941 ft / 1,201 m 326.14° 322.20° Grass 0 ft / 0 m 0 ft / 0 m

LJLJ

Details ICAO LJLJ (LJU)
Name LJUBLJANA
Region Slovenia
Timezone Europe/Ljubljana (UTC+1.0)
Stats Elevation 1,273 ft / 388 m (AMSL)
Location 46.223685° 14.457608°
Runways 1
Magnetic Variation 3.662° E

METAR

LJLJ 161300Z VRB01KT 9999 FEW007 SCT025 OVC100 03/01 Q1008 NOSIG

Decode

TAF

TAF LJLJ 160800Z 1609/1709 11003KT 7000 SCT004 BKN017 BECMG 1615/1617 9999 SCT020 PROB30 TEMPO 1617/1624 BKN020 TEMPO 1621/1709 0500 FZFG VV001

Decode

Destination Runways

ID Width Length Bearing (true) Bearing (mag) Surface Threshold Offset Overrun Length
13 148 ft / 45 m 10,811 ft / 3,295 m 126.47° 122.81° Asphalt 0 ft / 0 m 0 ft / 0 m
31 148 ft / 45 m 10,811 ft / 3,295 m 306.49° 302.83° Asphalt 0 ft / 0 m 0 ft / 0 m

Approach Navaids

Runway Type Ident Frequency Range Bearing (true) Bearing (mag) Slope Elevation
31 Localiser LJB 110.50 MHz 18 nm / 33 km 306.46° 302.80° - 1,282 ft / 391 m (AMSL)
31 Glidescope LJB 110.50 MHz 10 nm / 19 km 306.48° 302.82° 3.00° 1,198 ft / 365 m (AMSL)
31 DME LJB 110.50 MHz 18 nm / 33 km - - - 1,198 ft / 365 m (AMSL)

Popular Alternatives